sensor_id;sensor_type;location;lat;lon;timestamp;pressure;altitude;pressure_sealevel;temperature
9119;BMP180;4594;50.994;7.126;2024-02-23T00:02:19;98034.00;;;11.40
9119;BMP180;4594;50.994;7.126;2024-02-23T00:04:44;98053.00;;;11.40
9119;BMP180;4594;50.994;7.126;2024-02-23T00:07:11;98041.00;;;11.40
9119;BMP180;4594;50.994;7.126;2024-02-23T00:09:37;98053.00;;;11.40
9119;BMP180;4594;50.994;7.126;2024-02-23T00:12:03;98062.00;;;11.40
9119;BMP180;4594;50.994;7.126;2024-02-23T00:14:30;98080.00;;;11.40
9119;BMP180;4594;50.994;7.126;2024-02-23T00:17:02;98077.00;;;11.40
9119;BMP180;4594;50.994;7.126;2024-02-23T00:19:30;98068.00;;;11.30
9119;BMP180;4594;50.994;7.126;2024-02-23T00:21:56;98056.00;;;11.40
9119;BMP180;4594;50.994;7.126;2024-02-23T00:24:27;98093.00;;;11.30
9119;BMP180;4594;50.994;7.126;2024-02-23T00:26:54;98111.00;;;11.40
9119;BMP180;4594;50.994;7.126;2024-02-23T00:29:20;98114.00;;;11.30
9119;BMP180;4594;50.994;7.126;2024-02-23T00:31:47;98113.00;;;11.40
9119;BMP180;4594;50.994;7.126;2024-02-23T00:34:12;98128.00;;;11.40
9119;BMP180;4594;50.994;7.126;2024-02-23T00:36:42;98132.00;;;11.40
9119;BMP180;4594;50.994;7.126;2024-02-23T00:39:10;98139.00;;;11.40
9119;BMP180;4594;50.994;7.126;2024-02-23T00:41:36;98156.00;;;11.40
9119;BMP180;4594;50.994;7.126;2024-02-23T00:44:03;98146.00;;;11.30
9119;BMP180;4594;50.994;7.126;2024-02-23T00:46:29;98142.00;;;11.30
9119;BMP180;4594;50.994;7.126;2024-02-23T00:48:55;98158.00;;;11.20
9119;BMP180;4594;50.994;7.126;2024-02-23T00:51:21;98152.00;;;11.20
9119;BMP180;4594;50.994;7.126;2024-02-23T00:53:46;98138.00;;;11.10
9119;BMP180;4594;50.994;7.126;2024-02-23T00:56:12;98161.00;;;11.10
9119;BMP180;4594;50.994;7.126;2024-02-23T00:58:41;98164.00;;;11.10
9119;BMP180;4594;50.994;7.126;2024-02-23T01:01:06;98164.00;;;11.00
9119;BMP180;4594;50.994;7.126;2024-02-23T01:03:32;98175.00;;;11.00
9119;BMP180;4594;50.994;7.126;2024-02-23T01:05:58;98162.00;;;11.00
9119;BMP180;4594;50.994;7.126;2024-02-23T01:08:23;98177.00;;;11.00
9119;BMP180;4594;50.994;7.126;2024-02-23T01:10:49;98195.00;;;11.00
9119;BMP180;4594;50.994;7.126;2024-02-23T01:13:15;98197.00;;;11.00
9119;BMP180;4594;50.994;7.126;2024-02-23T01:15:42;98203.00;;;11.00
9119;BMP180;4594;50.994;7.126;2024-02-23T01:18:07;98194.00;;;11.00
9119;BMP180;4594;50.994;7.126;2024-02-23T01:20:34;98220.00;;;11.00
9119;BMP180;4594;50.994;7.126;2024-02-23T01:23:00;98231.00;;;11.00
9119;BMP180;4594;50.994;7.126;2024-02-23T01:25:26;98204.00;;;11.00
9119;BMP180;4594;50.994;7.126;2024-02-23T01:27:52;98228.00;;;11.00
9119;BMP180;4594;50.994;7.126;2024-02-23T01:30:17;98235.00;;;11.00
9119;BMP180;4594;50.994;7.126;2024-02-23T01:32:45;98230.00;;;11.00
9119;BMP180;4594;50.994;7.126;2024-02-23T01:35:11;98225.00;;;11.00
9119;BMP180;4594;50.994;7.126;2024-02-23T01:37:37;98213.00;;;11.00
9119;BMP180;4594;50.994;7.126;2024-02-23T01:40:03;98234.00;;;11.00
9119;BMP180;4594;50.994;7.126;2024-02-23T01:42:29;98234.00;;;11.00
9119;BMP180;4594;50.994;7.126;2024-02-23T01:44:55;98229.00;;;11.00
9119;BMP180;4594;50.994;7.126;2024-02-23T01:47:28;98246.00;;;11.00
9119;BMP180;4594;50.994;7.126;2024-02-23T01:49:57;98231.00;;;11.00
9119;BMP180;4594;50.994;7.126;2024-02-23T01:52:24;98251.00;;;11.00
9119;BMP180;4594;50.994;7.126;2024-02-23T01:54:50;98220.00;;;11.00
9119;BMP180;4594;50.994;7.126;2024-02-23T01:57:16;98232.00;;;11.00
9119;BMP180;4594;50.994;7.126;2024-02-23T01:59:42;98263.00;;;11.00
9119;BMP180;4594;50.994;7.126;2024-02-23T02:02:09;98244.00;;;10.90
9119;BMP180;4594;50.994;7.126;2024-02-23T02:04:34;98242.00;;;11.00
9119;BMP180;4594;50.994;7.126;2024-02-23T02:07:01;98249.00;;;11.00
9119;BMP180;4594;50.994;7.126;2024-02-23T02:09:27;98267.00;;;11.00
9119;BMP180;4594;50.994;7.126;2024-02-23T02:11:53;98266.00;;;11.00
9119;BMP180;4594;50.994;7.126;2024-02-23T02:14:19;98257.00;;;11.00
9119;BMP180;4594;50.994;7.126;2024-02-23T02:16:45;98278.00;;;11.00
9119;BMP180;4594;50.994;7.126;2024-02-23T02:19:12;98282.00;;;11.00
9119;BMP180;4594;50.994;7.126;2024-02-23T02:21:39;98263.00;;;11.00
9119;BMP180;4594;50.994;7.126;2024-02-23T02:24:06;98255.00;;;11.00
9119;BMP180;4594;50.994;7.126;2024-02-23T02:26:32;98246.00;;;11.00
9119;BMP180;4594;50.994;7.126;2024-02-23T02:28:58;98288.00;;;11.00
9119;BMP180;4594;50.994;7.126;2024-02-23T02:31:24;98291.00;;;11.00
9119;BMP180;4594;50.994;7.126;2024-02-23T02:33:50;98289.00;;;11.00
9119;BMP180;4594;50.994;7.126;2024-02-23T02:36:16;98290.00;;;11.00
9119;BMP180;4594;50.994;7.126;2024-02-23T02:38:41;98299.00;;;11.00
9119;BMP180;4594;50.994;7.126;2024-02-23T02:41:08;98287.00;;;10.90
9119;BMP180;4594;50.994;7.126;2024-02-23T02:43:34;98267.00;;;10.90
9119;BMP180;4594;50.994;7.126;2024-02-23T02:46:00;98283.00;;;10.80
9119;BMP180;4594;50.994;7.126;2024-02-23T02:48:25;98309.00;;;10.80
9119;BMP180;4594;50.994;7.126;2024-02-23T02:50:51;98314.00;;;10.80
9119;BMP180;4594;50.994;7.126;2024-02-23T02:53:18;98323.00;;;10.70
9119;BMP180;4594;50.994;7.126;2024-02-23T02:55:44;98328.00;;;10.70
9119;BMP180;4594;50.994;7.126;2024-02-23T02:58:13;98325.00;;;10.60
9119;BMP180;4594;50.994;7.126;2024-02-23T03:00:40;98323.00;;;10.60
9119;BMP180;4594;50.994;7.126;2024-02-23T03:03:06;98313.00;;;10.60
9119;BMP180;4594;50.994;7.126;2024-02-23T03:05:31;98322.00;;;10.50
9119;BMP180;4594;50.994;7.126;2024-02-23T03:07:57;98312.00;;;10.50
9119;BMP180;4594;50.994;7.126;2024-02-23T03:10:23;98294.00;;;10.40
9119;BMP180;4594;50.994;7.126;2024-02-23T03:12:48;98304.00;;;10.40
9119;BMP180;4594;50.994;7.126;2024-02-23T03:15:14;98318.00;;;10.40
9119;BMP180;4594;50.994;7.126;2024-02-23T03:17:40;98307.00;;;10.40
9119;BMP180;4594;50.994;7.126;2024-02-23T03:20:06;98312.00;;;10.30
9119;BMP180;4594;50.994;7.126;2024-02-23T03:22:39;98318.00;;;10.30
9119;BMP180;4594;50.994;7.126;2024-02-23T03:25:05;98326.00;;;10.20
9119;BMP180;4594;50.994;7.126;2024-02-23T03:27:36;98335.00;;;10.20
9119;BMP180;4594;50.994;7.126;2024-02-23T03:30:06;98312.00;;;10.20
9119;BMP180;4594;50.994;7.126;2024-02-23T03:32:35;98314.00;;;10.20
9119;BMP180;4594;50.994;7.126;2024-02-23T03:35:08;98321.00;;;10.20
9119;BMP180;4594;50.994;7.126;2024-02-23T03:37:34;98309.00;;;10.20
9119;BMP180;4594;50.994;7.126;2024-02-23T03:39:59;98320.00;;;10.20
9119;BMP180;4594;50.994;7.126;2024-02-23T03:42:26;98294.00;;;10.20
9119;BMP180;4594;50.994;7.126;2024-02-23T03:44:52;98319.00;;;10.10
9119;BMP180;4594;50.994;7.126;2024-02-23T03:47:18;98333.00;;;10.00
9119;BMP180;4594;50.994;7.126;2024-02-23T03:49:44;98326.00;;;10.00
9119;BMP180;4594;50.994;7.126;2024-02-23T03:52:10;98335.00;;;9.90
9119;BMP180;4594;50.994;7.126;2024-02-23T03:54:36;98329.00;;;9.90
9119;BMP180;4594;50.994;7.126;2024-02-23T03:57:01;98339.00;;;9.80
9119;BMP180;4594;50.994;7.126;2024-02-23T03:59:28;98333.00;;;9.80
9119;BMP180;4594;50.994;7.126;2024-02-23T04:01:53;98354.00;;;9.80
9119;BMP180;4594;50.994;7.126;2024-02-23T04:04:19;98339.00;;;9.80
9119;BMP180;4594;50.994;7.126;2024-02-23T04:06:45;98350.00;;;9.80
9119;BMP180;4594;50.994;7.126;2024-02-23T04:09:11;98344.00;;;9.90
9119;BMP180;4594;50.994;7.126;2024-02-23T04:11:36;98344.00;;;9.90
9119;BMP180;4594;50.994;7.126;2024-02-23T04:14:02;98354.00;;;9.90
9119;BMP180;4594;50.994;7.126;2024-02-23T04:16:31;98342.00;;;9.90
9119;BMP180;4594;50.994;7.126;2024-02-23T04:18:57;98337.00;;;9.90
9119;BMP180;4594;50.994;7.126;2024-02-23T04:21:23;98360.00;;;10.00
9119;BMP180;4594;50.994;7.126;2024-02-23T04:23:49;98345.00;;;10.00
9119;BMP180;4594;50.994;7.126;2024-02-23T04:26:14;98349.00;;;10.00
9119;BMP180;4594;50.994;7.126;2024-02-23T04:28:41;98355.00;;;10.00
9119;BMP180;4594;50.994;7.126;2024-02-23T04:31:09;98368.00;;;10.00
9119;BMP180;4594;50.994;7.126;2024-02-23T04:33:36;98344.00;;;10.00
9119;BMP180;4594;50.994;7.126;2024-02-23T04:36:03;98361.00;;;10.00
9119;BMP180;4594;50.994;7.126;2024-02-23T04:38:30;98366.00;;;10.00
9119;BMP180;4594;50.994;7.126;2024-02-23T04:40:56;98350.00;;;10.00
9119;BMP180;4594;50.994;7.126;2024-02-23T04:43:23;98363.00;;;10.10
9119;BMP180;4594;50.994;7.126;2024-02-23T04:45:49;98375.00;;;10.10
9119;BMP180;4594;50.994;7.126;2024-02-23T04:48:14;98357.00;;;10.10
9119;BMP180;4594;50.994;7.126;2024-02-23T04:50:40;98371.00;;;10.10
9119;BMP180;4594;50.994;7.126;2024-02-23T04:53:05;98354.00;;;10.20
9119;BMP180;4594;50.994;7.126;2024-02-23T04:55:31;98375.00;;;10.20
9119;BMP180;4594;50.994;7.126;2024-02-23T04:57:57;98380.00;;;10.20
9119;BMP180;4594;50.994;7.126;2024-02-23T05:00:22;98379.00;;;10.20
9119;BMP180;4594;50.994;7.126;2024-02-23T05:02:48;98380.00;;;10.20
9119;BMP180;4594;50.994;7.126;2024-02-23T05:05:15;98370.00;;;10.20
9119;BMP180;4594;50.994;7.126;2024-02-23T05:07:40;98376.00;;;10.20
9119;BMP180;4594;50.994;7.126;2024-02-23T05:10:07;98368.00;;;10.20
9119;BMP180;4594;50.994;7.126;2024-02-23T05:12:32;98353.00;;;10.20
9119;BMP180;4594;50.994;7.126;2024-02-23T05:14:58;98362.00;;;10.20
9119;BMP180;4594;50.994;7.126;2024-02-23T05:17:24;98376.00;;;10.20
9119;BMP180;4594;50.994;7.126;2024-02-23T05:19:49;98356.00;;;10.20
9119;BMP180;4594;50.994;7.126;2024-02-23T05:22:15;98370.00;;;10.20
9119;BMP180;4594;50.994;7.126;2024-02-23T05:24:41;98370.00;;;10.20
9119;BMP180;4594;50.994;7.126;2024-02-23T05:27:06;98367.00;;;10.20
9119;BMP180;4594;50.994;7.126;2024-02-23T05:29:32;98358.00;;;10.20
9119;BMP180;4594;50.994;7.126;2024-02-23T05:31:57;98343.00;;;10.20
9119;BMP180;4594;50.994;7.126;2024-02-23T05:34:23;98353.00;;;10.20
9119;BMP180;4594;50.994;7.126;2024-02-23T05:36:50;98338.00;;;10.20
9119;BMP180;4594;50.994;7.126;2024-02-23T05:39:16;98358.00;;;10.10
9119;BMP180;4594;50.994;7.126;2024-02-23T05:41:43;98351.00;;;10.10
9119;BMP180;4594;50.994;7.126;2024-02-23T05:44:09;98353.00;;;10.00
9119;BMP180;4594;50.994;7.126;2024-02-23T05:46:36;98360.00;;;10.00
9119;BMP180;4594;50.994;7.126;2024-02-23T05:49:03;98349.00;;;10.00
9119;BMP180;4594;50.994;7.126;2024-02-23T05:51:31;98366.00;;;9.90
9119;BMP180;4594;50.994;7.126;2024-02-23T05:53:58;98362.00;;;9.80
9119;BMP180;4594;50.994;7.126;2024-02-23T05:56:24;98346.00;;;9.80
9119;BMP180;4594;50.994;7.126;2024-02-23T05:58:51;98345.00;;;9.70
9119;BMP180;4594;50.994;7.126;2024-02-23T06:01:18;98363.00;;;9.70
9119;BMP180;4594;50.994;7.126;2024-02-23T06:03:44;98366.00;;;9.60
9119;BMP180;4594;50.994;7.126;2024-02-23T06:06:10;98361.00;;;9.60
9119;BMP180;4594;50.994;7.126;2024-02-23T06:08:36;98358.00;;;9.60
9119;BMP180;4594;50.994;7.126;2024-02-23T06:11:03;98345.00;;;9.60
9119;BMP180;4594;50.994;7.126;2024-02-23T06:13:30;98356.00;;;9.60
9119;BMP180;4594;50.994;7.126;2024-02-23T06:15:56;98334.00;;;9.50
9119;BMP180;4594;50.994;7.126;2024-02-23T06:18:21;98347.00;;;9.50
9119;BMP180;4594;50.994;7.126;2024-02-23T06:20:49;98367.00;;;9.50
9119;BMP180;4594;50.994;7.126;2024-02-23T06:23:16;98353.00;;;9.50
9119;BMP180;4594;50.994;7.126;2024-02-23T06:25:43;98340.00;;;9.50
9119;BMP180;4594;50.994;7.126;2024-02-23T06:28:11;98332.00;;;9.50
9119;BMP180;4594;50.994;7.126;2024-02-23T06:30:37;98328.00;;;9.60
9119;BMP180;4594;50.994;7.126;2024-02-23T06:33:03;98344.00;;;9.60
9119;BMP180;4594;50.994;7.126;2024-02-23T06:35:30;98335.00;;;9.60
9119;BMP180;4594;50.994;7.126;2024-02-23T06:37:56;98334.00;;;9.60
9119;BMP180;4594;50.994;7.126;2024-02-23T06:40:22;98352.00;;;9.60
9119;BMP180;4594;50.994;7.126;2024-02-23T06:42:48;98343.00;;;9.50
9119;BMP180;4594;50.994;7.126;2024-02-23T06:45:13;98360.00;;;9.60
9119;BMP180;4594;50.994;7.126;2024-02-23T06:47:39;98367.00;;;9.60
9119;BMP180;4594;50.994;7.126;2024-02-23T06:50:06;98362.00;;;9.60
9119;BMP180;4594;50.994;7.126;2024-02-23T06:52:34;98348.00;;;9.60
9119;BMP180;4594;50.994;7.126;2024-02-23T06:55:00;98355.00;;;9.70
9119;BMP180;4594;50.994;7.126;2024-02-23T06:57:25;98359.00;;;9.70
9119;BMP180;4594;50.994;7.126;2024-02-23T06:59:52;98346.00;;;9.70
9119;BMP180;4594;50.994;7.126;2024-02-23T07:02:17;98350.00;;;9.70
9119;BMP180;4594;50.994;7.126;2024-02-23T07:04:43;98347.00;;;9.70
9119;BMP180;4594;50.994;7.126;2024-02-23T07:07:09;98336.00;;;9.80
9119;BMP180;4594;50.994;7.126;2024-02-23T07:09:35;98330.00;;;9.80
9119;BMP180;4594;50.994;7.126;2024-02-23T07:12:00;98342.00;;;9.90
9119;BMP180;4594;50.994;7.126;2024-02-23T07:14:26;98339.00;;;9.90
9119;BMP180;4594;50.994;7.126;2024-02-23T07:16:52;98335.00;;;10.00
9119;BMP180;4594;50.994;7.126;2024-02-23T07:19:18;98332.00;;;10.10
9119;BMP180;4594;50.994;7.126;2024-02-23T07:21:45;98364.00;;;10.20
9119;BMP180;4594;50.994;7.126;2024-02-23T07:24:11;98365.00;;;10.20
9119;BMP180;4594;50.994;7.126;2024-02-23T07:26:37;98335.00;;;10.30
9119;BMP180;4594;50.994;7.126;2024-02-23T07:29:03;98356.00;;;10.40
9119;BMP180;4594;50.994;7.126;2024-02-23T07:31:29;98358.00;;;10.50
9119;BMP180;4594;50.994;7.126;2024-02-23T07:33:54;98355.00;;;10.60
9119;BMP180;4594;50.994;7.126;2024-02-23T07:36:20;98339.00;;;10.70
9119;BMP180;4594;50.994;7.126;2024-02-23T07:38:47;98362.00;;;10.90
9119;BMP180;4594;50.994;7.126;2024-02-23T07:41:14;98359.00;;;11.00
9119;BMP180;4594;50.994;7.126;2024-02-23T07:43:40;98360.00;;;11.10
9119;BMP180;4594;50.994;7.126;2024-02-23T07:46:06;98329.00;;;11.20
9119;BMP180;4594;50.994;7.126;2024-02-23T07:48:35;98354.00;;;11.20
9119;BMP180;4594;50.994;7.126;2024-02-23T07:51:02;98359.00;;;11.30
9119;BMP180;4594;50.994;7.126;2024-02-23T07:53:29;98347.00;;;11.30
9119;BMP180;4594;50.994;7.126;2024-02-23T07:55:54;98337.00;;;11.40
9119;BMP180;4594;50.994;7.126;2024-02-23T07:58:20;98353.00;;;11.60
9119;BMP180;4594;50.994;7.126;2024-02-23T08:00:47;98344.00;;;12.00
9119;BMP180;4594;50.994;7.126;2024-02-23T08:03:12;98347.00;;;12.40
9119;BMP180;4594;50.994;7.126;2024-02-23T08:05:38;98346.00;;;12.80
9119;BMP180;4594;50.994;7.126;2024-02-23T08:08:04;98354.00;;;13.30
9119;BMP180;4594;50.994;7.126;2024-02-23T08:10:32;98359.00;;;13.80
9119;BMP180;4594;50.994;7.126;2024-02-23T08:12:59;98372.00;;;14.40
9119;BMP180;4594;50.994;7.126;2024-02-23T08:15:24;98375.00;;;14.70
9119;BMP180;4594;50.994;7.126;2024-02-23T08:17:50;98378.00;;;14.90
9119;BMP180;4594;50.994;7.126;2024-02-23T08:20:16;98384.00;;;14.90
9119;BMP180;4594;50.994;7.126;2024-02-23T08:22:41;98379.00;;;15.00
9119;BMP180;4594;50.994;7.126;2024-02-23T08:25:07;98388.00;;;15.00
9119;BMP180;4594;50.994;7.126;2024-02-23T08:27:33;98397.00;;;14.90
9119;BMP180;4594;50.994;7.126;2024-02-23T08:29:59;98396.00;;;14.90
9119;BMP180;4594;50.994;7.126;2024-02-23T08:32:25;98386.00;;;14.90
9119;BMP180;4594;50.994;7.126;2024-02-23T08:34:51;98386.00;;;14.80
9119;BMP180;4594;50.994;7.126;2024-02-23T08:37:18;98384.00;;;14.70
9119;BMP180;4594;50.994;7.126;2024-02-23T08:39:44;98397.00;;;14.70
9119;BMP180;4594;50.994;7.126;2024-02-23T08:42:10;98391.00;;;14.60
9119;BMP180;4594;50.994;7.126;2024-02-23T08:44:35;98380.00;;;14.60
9119;BMP180;4594;50.994;7.126;2024-02-23T08:47:04;98387.00;;;14.50
9119;BMP180;4594;50.994;7.126;2024-02-23T08:49:29;98398.00;;;14.40
9119;BMP180;4594;50.994;7.126;2024-02-23T08:51:55;98388.00;;;14.40
9119;BMP180;4594;50.994;7.126;2024-02-23T08:54:23;98393.00;;;14.30
9119;BMP180;4594;50.994;7.126;2024-02-23T08:56:49;98382.00;;;14.30
9119;BMP180;4594;50.994;7.126;2024-02-23T08:59:14;98394.00;;;14.30
9119;BMP180;4594;50.994;7.126;2024-02-23T09:01:40;98404.00;;;14.20
9119;BMP180;4594;50.994;7.126;2024-02-23T09:04:06;98420.00;;;14.20
9119;BMP180;4594;50.994;7.126;2024-02-23T09:06:31;98409.00;;;14.10
9119;BMP180;4594;50.994;7.126;2024-02-23T09:08:58;98401.00;;;14.00
9119;BMP180;4594;50.994;7.126;2024-02-23T09:11:24;98409.00;;;13.90
9119;BMP180;4594;50.994;7.126;2024-02-23T09:13:49;98392.00;;;13.90
9119;BMP180;4594;50.994;7.126;2024-02-23T09:16:15;98415.00;;;13.90
9119;BMP180;4594;50.994;7.126;2024-02-23T09:18:41;98404.00;;;13.80
9119;BMP180;4594;50.994;7.126;2024-02-23T09:21:07;98405.00;;;13.80
9119;BMP180;4594;50.994;7.126;2024-02-23T09:23:32;98390.00;;;13.70
9119;BMP180;4594;50.994;7.126;2024-02-23T09:25:59;98409.00;;;13.70
9119;BMP180;4594;50.994;7.126;2024-02-23T09:28:24;98399.00;;;13.70
9119;BMP180;4594;50.994;7.126;2024-02-23T09:30:50;98424.00;;;13.60
9119;BMP180;4594;50.994;7.126;2024-02-23T09:33:16;98415.00;;;13.60
9119;BMP180;4594;50.994;7.126;2024-02-23T09:35:41;98416.00;;;13.60
9119;BMP180;4594;50.994;7.126;2024-02-23T09:38:07;98421.00;;;13.60
9119;BMP180;4594;50.994;7.126;2024-02-23T09:40:33;98427.00;;;13.60
9119;BMP180;4594;50.994;7.126;2024-02-23T09:42:59;98400.00;;;13.50
9119;BMP180;4594;50.994;7.126;2024-02-23T09:45:27;98406.00;;;13.50
9119;BMP180;4594;50.994;7.126;2024-02-23T09:47:57;98413.00;;;13.50
9119;BMP180;4594;50.994;7.126;2024-02-23T09:50:24;98420.00;;;13.60
9119;BMP180;4594;50.994;7.126;2024-02-23T09:52:50;98380.00;;;13.70
9119;BMP180;4594;50.994;7.126;2024-02-23T09:55:17;98405.00;;;13.80
9119;BMP180;4594;50.994;7.126;2024-02-23T09:57:48;98419.00;;;13.90
9119;BMP180;4594;50.994;7.126;2024-02-23T10:00:17;98405.00;;;13.90
9119;BMP180;4594;50.994;7.126;2024-02-23T10:02:43;98400.00;;;13.90
9119;BMP180;4594;50.994;7.126;2024-02-23T10:05:10;98422.00;;;14.00
9119;BMP180;4594;50.994;7.126;2024-02-23T10:07:37;98411.00;;;13.90
9119;BMP180;4594;50.994;7.126;2024-02-23T10:10:07;98426.00;;;13.90
9119;BMP180;4594;50.994;7.126;2024-02-23T10:12:34;98427.00;;;14.00
9119;BMP180;4594;50.994;7.126;2024-02-23T10:15:02;98433.00;;;14.00
9119;BMP180;4594;50.994;7.126;2024-02-23T10:17:30;98417.00;;;14.00
9119;BMP180;4594;50.994;7.126;2024-02-23T10:19:56;98413.00;;;14.00
9119;BMP180;4594;50.994;7.126;2024-02-23T10:22:24;98425.00;;;14.10
9119;BMP180;4594;50.994;7.126;2024-02-23T10:24:51;98422.00;;;14.10
9119;BMP180;4594;50.994;7.126;2024-02-23T10:27:17;98402.00;;;14.10
9119;BMP180;4594;50.994;7.126;2024-02-23T10:29:43;98419.00;;;14.10
9119;BMP180;4594;50.994;7.126;2024-02-23T10:32:14;98430.00;;;14.10
9119;BMP180;4594;50.994;7.126;2024-02-23T10:34:43;98437.00;;;14.10
9119;BMP180;4594;50.994;7.126;2024-02-23T10:37:09;98424.00;;;14.10
9119;BMP180;4594;50.994;7.126;2024-02-23T10:39:39;98426.00;;;14.20
9119;BMP180;4594;50.994;7.126;2024-02-23T10:42:09;98429.00;;;14.60
9119;BMP180;4594;50.994;7.126;2024-02-23T10:44:36;98439.00;;;14.70
9119;BMP180;4594;50.994;7.126;2024-02-23T10:47:04;98413.00;;;14.70
9119;BMP180;4594;50.994;7.126;2024-02-23T10:49:31;98439.00;;;14.90
9119;BMP180;4594;50.994;7.126;2024-02-23T10:51:59;98431.00;;;14.90
9119;BMP180;4594;50.994;7.126;2024-02-23T10:54:26;98430.00;;;15.00
9119;BMP180;4594;50.994;7.126;2024-02-23T10:56:52;98437.00;;;15.10
9119;BMP180;4594;50.994;7.126;2024-02-23T10:59:19;98439.00;;;15.20
9119;BMP180;4594;50.994;7.126;2024-02-23T11:01:48;98449.00;;;15.20
9119;BMP180;4594;50.994;7.126;2024-02-23T11:04:19;98447.00;;;15.30
9119;BMP180;4594;50.994;7.126;2024-02-23T11:06:53;98427.00;;;15.30
9119;BMP180;4594;50.994;7.126;2024-02-23T11:09:24;98439.00;;;15.30
9119;BMP180;4594;50.994;7.126;2024-02-23T11:11:58;98454.00;;;15.40
9119;BMP180;4594;50.994;7.126;2024-02-23T11:14:36;98437.00;;;15.40
9119;BMP180;4594;50.994;7.126;2024-02-23T11:17:03;98433.00;;;15.40
9119;BMP180;4594;50.994;7.126;2024-02-23T11:19:33;98446.00;;;15.50
9119;BMP180;4594;50.994;7.126;2024-02-23T11:22:00;98407.00;;;15.60
9119;BMP180;4594;50.994;7.126;2024-02-23T11:24:29;98427.00;;;15.50
9119;BMP180;4594;50.994;7.126;2024-02-23T11:27:01;98415.00;;;15.50
9119;BMP180;4594;50.994;7.126;2024-02-23T11:29:34;98428.00;;;15.50
9119;BMP180;4594;50.994;7.126;2024-02-23T11:32:02;98429.00;;;15.50
9119;BMP180;4594;50.994;7.126;2024-02-23T11:34:30;98415.00;;;15.40
9119;BMP180;4594;50.994;7.126;2024-02-23T11:36:56;98443.00;;;15.40
9119;BMP180;4594;50.994;7.126;2024-02-23T11:39:26;98426.00;;;15.30
9119;BMP180;4594;50.994;7.126;2024-02-23T11:41:52;98421.00;;;15.30
9119;BMP180;4594;50.994;7.126;2024-02-23T11:44:18;98425.00;;;15.30
9119;BMP180;4594;50.994;7.126;2024-02-23T11:46:44;98436.00;;;15.30
9119;BMP180;4594;50.994;7.126;2024-02-23T11:49:11;98429.00;;;15.20
9119;BMP180;4594;50.994;7.126;2024-02-23T11:51:36;98425.00;;;15.20
9119;BMP180;4594;50.994;7.126;2024-02-23T11:54:02;98418.00;;;15.10
9119;BMP180;4594;50.994;7.126;2024-02-23T11:56:29;98438.00;;;15.10
9119;BMP180;4594;50.994;7.126;2024-02-23T11:58:55;98416.00;;;15.10
9119;BMP180;4594;50.994;7.126;2024-02-23T12:01:22;98434.00;;;15.10
9119;BMP180;4594;50.994;7.126;2024-02-23T12:03:47;98428.00;;;15.00
9119;BMP180;4594;50.994;7.126;2024-02-23T12:06:14;98429.00;;;14.90
9119;BMP180;4594;50.994;7.126;2024-02-23T12:08:44;98417.00;;;14.90
9119;BMP180;4594;50.994;7.126;2024-02-23T12:11:11;98411.00;;;14.90
9119;BMP180;4594;50.994;7.126;2024-02-23T12:13:39;98429.00;;;14.80
9119;BMP180;4594;50.994;7.126;2024-02-23T12:16:07;98415.00;;;14.80
9119;BMP180;4594;50.994;7.126;2024-02-23T12:18:35;98429.00;;;14.70
9119;BMP180;4594;50.994;7.126;2024-02-23T12:21:04;98408.00;;;14.60
9119;BMP180;4594;50.994;7.126;2024-02-23T12:23:44;98414.00;;;14.60
9119;BMP180;4594;50.994;7.126;2024-02-23T12:26:15;98402.00;;;14.50
9119;BMP180;4594;50.994;7.126;2024-02-23T12:28:42;98413.00;;;14.50
9119;BMP180;4594;50.994;7.126;2024-02-23T12:31:08;98414.00;;;14.50
9119;BMP180;4594;50.994;7.126;2024-02-23T12:33:37;98409.00;;;14.50
9119;BMP180;4594;50.994;7.126;2024-02-23T12:36:04;98414.00;;;14.50
9119;BMP180;4594;50.994;7.126;2024-02-23T12:38:31;98425.00;;;14.50
9119;BMP180;4594;50.994;7.126;2024-02-23T12:40:57;98424.00;;;14.50
9119;BMP180;4594;50.994;7.126;2024-02-23T12:43:24;98403.00;;;14.50
9119;BMP180;4594;50.994;7.126;2024-02-23T12:45:53;98414.00;;;14.50
9119;BMP180;4594;50.994;7.126;2024-02-23T12:48:20;98430.00;;;14.50
9119;BMP180;4594;50.994;7.126;2024-02-23T12:50:47;98425.00;;;14.50
9119;BMP180;4594;50.994;7.126;2024-02-23T12:53:37;98424.00;;;14.60
9119;BMP180;4594;50.994;7.126;2024-02-23T12:56:05;98416.00;;;14.60
9119;BMP180;4594;50.994;7.126;2024-02-23T12:58:36;98403.00;;;14.60
9119;BMP180;4594;50.994;7.126;2024-02-23T13:01:02;98421.00;;;14.70
9119;BMP180;4594;50.994;7.126;2024-02-23T13:03:28;98408.00;;;14.70
9119;BMP180;4594;50.994;7.126;2024-02-23T13:05:56;98412.00;;;14.80
9119;BMP180;4594;50.994;7.126;2024-02-23T13:08:22;98415.00;;;14.90
9119;BMP180;4594;50.994;7.126;2024-02-23T13:10:52;98407.00;;;14.90
9119;BMP180;4594;50.994;7.126;2024-02-23T13:13:19;98415.00;;;15.00
9119;BMP180;4594;50.994;7.126;2024-02-23T13:15:50;98408.00;;;15.10
9119;BMP180;4594;50.994;7.126;2024-02-23T13:18:16;98408.00;;;15.10
9119;BMP180;4594;50.994;7.126;2024-02-23T13:20:42;98414.00;;;15.20
9119;BMP180;4594;50.994;7.126;2024-02-23T13:23:09;98416.00;;;15.20
9119;BMP180;4594;50.994;7.126;2024-02-23T13:25:39;98418.00;;;15.20
9119;BMP180;4594;50.994;7.126;2024-02-23T13:28:07;98414.00;;;15.20
9119;BMP180;4594;50.994;7.126;2024-02-23T13:30:34;98402.00;;;15.10
9119;BMP180;4594;50.994;7.126;2024-02-23T13:33:00;98398.00;;;15.10
9119;BMP180;4594;50.994;7.126;2024-02-23T13:35:26;98396.00;;;15.10
9119;BMP180;4594;50.994;7.126;2024-02-23T13:37:52;98405.00;;;15.10
9119;BMP180;4594;50.994;7.126;2024-02-23T13:40:18;98407.00;;;15.20
9119;BMP180;4594;50.994;7.126;2024-02-23T13:42:44;98404.00;;;15.20
9119;BMP180;4594;50.994;7.126;2024-02-23T13:45:15;98410.00;;;15.30
9119;BMP180;4594;50.994;7.126;2024-02-23T13:47:42;98402.00;;;15.40
9119;BMP180;4594;50.994;7.126;2024-02-23T13:50:10;98400.00;;;15.40
9119;BMP180;4594;50.994;7.126;2024-02-23T13:52:36;98413.00;;;15.50
9119;BMP180;4594;50.994;7.126;2024-02-23T13:55:02;98393.00;;;15.50
9119;BMP180;4594;50.994;7.126;2024-02-23T13:57:29;98429.00;;;15.50
9119;BMP180;4594;50.994;7.126;2024-02-23T13:59:54;98380.00;;;15.60
9119;BMP180;4594;50.994;7.126;2024-02-23T14:02:26;98412.00;;;15.60
9119;BMP180;4594;50.994;7.126;2024-02-23T14:04:52;98358.00;;;15.50
9119;BMP180;4594;50.994;7.126;2024-02-23T14:07:20;98421.00;;;15.50
9119;BMP180;4594;50.994;7.126;2024-02-23T14:09:46;98402.00;;;15.40
9119;BMP180;4594;50.994;7.126;2024-02-23T14:12:12;98393.00;;;15.40
9119;BMP180;4594;50.994;7.126;2024-02-23T14:14:38;98383.00;;;15.40
9119;BMP180;4594;50.994;7.126;2024-02-23T14:17:04;98359.00;;;15.30
9119;BMP180;4594;50.994;7.126;2024-02-23T14:19:29;98379.00;;;15.30
9119;BMP180;4594;50.994;7.126;2024-02-23T14:21:55;98415.00;;;15.30
9119;BMP180;4594;50.994;7.126;2024-02-23T14:24:21;98408.00;;;15.40
9119;BMP180;4594;50.994;7.126;2024-02-23T14:26:47;98404.00;;;15.30
9119;BMP180;4594;50.994;7.126;2024-02-23T14:29:15;98412.00;;;15.30
9119;BMP180;4594;50.994;7.126;2024-02-23T14:31:43;98407.00;;;15.30
9119;BMP180;4594;50.994;7.126;2024-02-23T14:34:08;98425.00;;;15.30